sensor_id;sensor_type;location;lat;lon;timestamp;P1;durP1;ratioP1;P2;durP2;ratioP2
23449;SDS011;11897;45.438;12.128;2024-01-16T00:00:56;111.97;;;61.90;;
23449;SDS011;11897;45.438;12.128;2024-01-16T00:03:23;112.10;;;60.50;;
23449;SDS011;11897;45.438;12.128;2024-01-16T00:05:50;119.93;;;61.80;;
23449;SDS011;11897;45.438;12.128;2024-01-16T00:08:18;123.80;;;63.30;;
23449;SDS011;11897;45.438;12.128;2024-01-16T00:10:46;123.70;;;62.73;;
23449;SDS011;11897;45.438;12.128;2024-01-16T00:13:13;118.93;;;63.43;;
23449;SDS011;11897;45.438;12.128;2024-01-16T00:15:39;118.57;;;60.73;;
23449;SDS011;11897;45.438;12.128;2024-01-16T00:18:07;119.57;;;61.70;;
23449;SDS011;11897;45.438;12.128;2024-01-16T00:20:34;119.77;;;64.30;;
23449;SDS011;11897;45.438;12.128;2024-01-16T00:23:01;119.43;;;61.33;;
23449;SDS011;11897;45.438;12.128;2024-01-16T00:25:29;114.50;;;59.90;;
23449;SDS011;11897;45.438;12.128;2024-01-16T00:27:56;104.40;;;53.63;;
23449;SDS011;11897;45.438;12.128;2024-01-16T00:30:22;92.23;;;50.00;;
23449;SDS011;11897;45.438;12.128;2024-01-16T00:32:49;113.30;;;51.43;;
23449;SDS011;11897;45.438;12.128;2024-01-16T00:35:17;88.50;;;49.27;;
23449;SDS011;11897;45.438;12.128;2024-01-16T00:37:43;86.63;;;50.30;;
23449;SDS011;11897;45.438;12.128;2024-01-16T00:40:10;82.70;;;46.80;;
23449;SDS011;11897;45.438;12.128;2024-01-16T00:42:42;79.63;;;47.73;;
23449;SDS011;11897;45.438;12.128;2024-01-16T00:45:09;81.17;;;47.23;;
23449;SDS011;11897;45.438;12.128;2024-01-16T00:47:36;84.87;;;48.37;;
23449;SDS011;11897;45.438;12.128;2024-01-16T00:50:03;87.67;;;53.47;;
23449;SDS011;11897;45.438;12.128;2024-01-16T00:52:30;91.77;;;54.23;;
23449;SDS011;11897;45.438;12.128;2024-01-16T00:54:57;90.63;;;53.33;;
23449;SDS011;11897;45.438;12.128;2024-01-16T00:57:24;100.63;;;56.57;;
23449;SDS011;11897;45.438;12.128;2024-01-16T00:59:52;98.87;;;56.43;;
23449;SDS011;11897;45.438;12.128;2024-01-16T01:02:18;105.23;;;57.37;;
23449;SDS011;11897;45.438;12.128;2024-01-16T01:04:45;110.27;;;57.90;;
23449;SDS011;11897;45.438;12.128;2024-01-16T01:07:13;110.17;;;59.70;;
23449;SDS011;11897;45.438;12.128;2024-01-16T01:09:40;98.47;;;55.93;;
23449;SDS011;11897;45.438;12.128;2024-01-16T01:12:06;112.40;;;60.97;;
23449;SDS011;11897;45.438;12.128;2024-01-16T01:14:33;112.30;;;60.83;;
23449;SDS011;11897;45.438;12.128;2024-01-16T01:17:01;104.10;;;55.97;;
23449;SDS011;11897;45.438;12.128;2024-01-16T01:19:28;106.30;;;56.80;;
23449;SDS011;11897;45.438;12.128;2024-01-16T01:21:55;99.20;;;56.87;;
23449;SDS011;11897;45.438;12.128;2024-01-16T01:24:21;109.70;;;60.20;;
23449;SDS011;11897;45.438;12.128;2024-01-16T01:26:48;110.83;;;60.80;;
23449;SDS011;11897;45.438;12.128;2024-01-16T01:29:15;120.60;;;62.17;;
23449;SDS011;11897;45.438;12.128;2024-01-16T01:31:45;116.73;;;61.27;;
23449;SDS011;11897;45.438;12.128;2024-01-16T01:34:14;110.10;;;60.13;;
23449;SDS011;11897;45.438;12.128;2024-01-16T01:36:41;110.17;;;58.40;;
23449;SDS011;11897;45.438;12.128;2024-01-16T01:39:09;111.37;;;62.30;;
23449;SDS011;11897;45.438;12.128;2024-01-16T01:41:37;119.97;;;62.67;;
23449;SDS011;11897;45.438;12.128;2024-01-16T01:44:05;125.60;;;66.33;;
23449;SDS011;11897;45.438;12.128;2024-01-16T01:46:32;127.40;;;64.77;;
23449;SDS011;11897;45.438;12.128;2024-01-16T01:49:00;117.77;;;64.70;;
23449;SDS011;11897;45.438;12.128;2024-01-16T01:51:29;131.17;;;67.57;;
23449;SDS011;11897;45.438;12.128;2024-01-16T01:53:56;128.57;;;66.03;;
23449;SDS011;11897;45.438;12.128;2024-01-16T01:56:24;120.77;;;63.33;;
23449;SDS011;11897;45.438;12.128;2024-01-16T01:58:53;122.23;;;65.03;;
23449;SDS011;11897;45.438;12.128;2024-01-16T02:01:21;116.37;;;63.80;;
23449;SDS011;11897;45.438;12.128;2024-01-16T02:03:48;123.87;;;63.00;;
23449;SDS011;11897;45.438;12.128;2024-01-16T02:06:15;132.27;;;65.10;;
23449;SDS011;11897;45.438;12.128;2024-01-16T02:08:44;122.27;;;64.33;;
23449;SDS011;11897;45.438;12.128;2024-01-16T02:11:11;122.27;;;65.07;;
23449;SDS011;11897;45.438;12.128;2024-01-16T02:13:37;120.40;;;63.00;;
23449;SDS011;11897;45.438;12.128;2024-01-16T02:16:06;117.30;;;63.13;;
23449;SDS011;11897;45.438;12.128;2024-01-16T02:18:43;123.30;;;64.07;;
23449;SDS011;11897;45.438;12.128;2024-01-16T02:21:10;119.23;;;63.80;;
23449;SDS011;11897;45.438;12.128;2024-01-16T02:23:39;111.07;;;59.00;;
23449;SDS011;11897;45.438;12.128;2024-01-16T02:26:06;118.03;;;62.03;;
23449;SDS011;11897;45.438;12.128;2024-01-16T02:28:33;117.37;;;59.80;;
23449;SDS011;11897;45.438;12.128;2024-01-16T02:30:59;116.83;;;60.30;;
23449;SDS011;11897;45.438;12.128;2024-01-16T02:33:27;114.00;;;61.20;;
23449;SDS011;11897;45.438;12.128;2024-01-16T02:35:54;107.77;;;58.33;;
23449;SDS011;11897;45.438;12.128;2024-01-16T02:38:21;109.00;;;57.73;;
23449;SDS011;11897;45.438;12.128;2024-01-16T02:40:49;120.70;;;60.67;;
23449;SDS011;11897;45.438;12.128;2024-01-16T02:43:17;121.30;;;61.97;;
23449;SDS011;11897;45.438;12.128;2024-01-16T02:45:44;123.93;;;60.03;;
23449;SDS011;11897;45.438;12.128;2024-01-16T02:48:11;114.17;;;60.73;;
23449;SDS011;11897;45.438;12.128;2024-01-16T02:50:38;116.60;;;61.57;;
23449;SDS011;11897;45.438;12.128;2024-01-16T02:53:05;122.77;;;61.47;;
23449;SDS011;11897;45.438;12.128;2024-01-16T02:55:31;117.87;;;62.30;;
23449;SDS011;11897;45.438;12.128;2024-01-16T02:57:59;116.90;;;60.67;;
23449;SDS011;11897;45.438;12.128;2024-01-16T03:00:28;118.97;;;61.80;;
23449;SDS011;11897;45.438;12.128;2024-01-16T03:02:55;115.00;;;58.73;;
23449;SDS011;11897;45.438;12.128;2024-01-16T03:05:22;111.83;;;59.50;;
23449;SDS011;11897;45.438;12.128;2024-01-16T03:07:49;111.97;;;58.40;;
23449;SDS011;11897;45.438;12.128;2024-01-16T03:10:16;112.67;;;59.83;;
23449;SDS011;11897;45.438;12.128;2024-01-16T03:12:43;105.87;;;57.77;;
23449;SDS011;11897;45.438;12.128;2024-01-16T03:15:11;102.87;;;57.13;;
23449;SDS011;11897;45.438;12.128;2024-01-16T03:17:38;114.93;;;57.60;;
23449;SDS011;11897;45.438;12.128;2024-01-16T03:20:06;119.27;;;60.53;;
23449;SDS011;11897;45.438;12.128;2024-01-16T03:22:34;106.93;;;58.13;;
23449;SDS011;11897;45.438;12.128;2024-01-16T03:25:00;109.47;;;57.87;;
23449;SDS011;11897;45.438;12.128;2024-01-16T03:27:27;106.20;;;55.30;;
23449;SDS011;11897;45.438;12.128;2024-01-16T03:29:56;102.40;;;54.50;;
23449;SDS011;11897;45.438;12.128;2024-01-16T03:32:25;101.63;;;55.63;;
23449;SDS011;11897;45.438;12.128;2024-01-16T03:34:51;104.93;;;58.13;;
23449;SDS011;11897;45.438;12.128;2024-01-16T03:37:18;107.00;;;56.80;;
23449;SDS011;11897;45.438;12.128;2024-01-16T03:39:45;113.00;;;56.90;;
23449;SDS011;11897;45.438;12.128;2024-01-16T03:42:12;101.97;;;55.60;;
23449;SDS011;11897;45.438;12.128;2024-01-16T03:44:41;107.97;;;56.13;;
23449;SDS011;11897;45.438;12.128;2024-01-16T03:47:15;107.37;;;55.83;;
23449;SDS011;11897;45.438;12.128;2024-01-16T03:49:43;104.77;;;53.57;;
23449;SDS011;11897;45.438;12.128;2024-01-16T03:52:10;103.70;;;55.93;;
23449;SDS011;11897;45.438;12.128;2024-01-16T03:54:37;109.77;;;55.60;;
23449;SDS011;11897;45.438;12.128;2024-01-16T03:57:06;105.73;;;56.90;;
23449;SDS011;11897;45.438;12.128;2024-01-16T03:59:36;114.13;;;57.23;;
23449;SDS011;11897;45.438;12.128;2024-01-16T04:02:03;110.60;;;56.57;;
23449;SDS011;11897;45.438;12.128;2024-01-16T04:04:31;111.67;;;58.17;;
23449;SDS011;11897;45.438;12.128;2024-01-16T04:07:01;110.67;;;56.23;;
23449;SDS011;11897;45.438;12.128;2024-01-16T04:09:28;114.90;;;58.73;;
23449;SDS011;11897;45.438;12.128;2024-01-16T04:11:55;106.87;;;57.70;;
23449;SDS011;11897;45.438;12.128;2024-01-16T04:14:22;104.57;;;57.30;;
23449;SDS011;11897;45.438;12.128;2024-01-16T04:16:49;102.30;;;55.17;;
23449;SDS011;11897;45.438;12.128;2024-01-16T04:19:15;103.77;;;54.83;;
23449;SDS011;11897;45.438;12.128;2024-01-16T04:21:42;99.23;;;53.07;;
23449;SDS011;11897;45.438;12.128;2024-01-16T04:24:10;113.53;;;55.03;;
23449;SDS011;11897;45.438;12.128;2024-01-16T04:26:37;101.70;;;54.17;;
23449;SDS011;11897;45.438;12.128;2024-01-16T04:29:04;91.87;;;51.70;;
23449;SDS011;11897;45.438;12.128;2024-01-16T04:31:32;96.00;;;49.47;;
23449;SDS011;11897;45.438;12.128;2024-01-16T04:33:59;98.17;;;50.90;;
23449;SDS011;11897;45.438;12.128;2024-01-16T04:36:26;90.03;;;51.27;;
23449;SDS011;11897;45.438;12.128;2024-01-16T04:38:52;93.03;;;48.30;;
23449;SDS011;11897;45.438;12.128;2024-01-16T04:41:21;88.87;;;46.70;;
23449;SDS011;11897;45.438;12.128;2024-01-16T04:43:47;85.00;;;46.67;;
23449;SDS011;11897;45.438;12.128;2024-01-16T04:46:15;86.70;;;45.83;;
23449;SDS011;11897;45.438;12.128;2024-01-16T04:48:41;84.90;;;46.37;;
23449;SDS011;11897;45.438;12.128;2024-01-16T04:51:08;78.83;;;43.40;;
23449;SDS011;11897;45.438;12.128;2024-01-16T04:53:37;76.37;;;43.67;;
23449;SDS011;11897;45.438;12.128;2024-01-16T04:56:04;80.07;;;43.13;;
23449;SDS011;11897;45.438;12.128;2024-01-16T04:58:38;73.20;;;39.50;;
23449;SDS011;11897;45.438;12.128;2024-01-16T05:01:05;78.87;;;41.63;;
23449;SDS011;11897;45.438;12.128;2024-01-16T05:03:40;69.70;;;39.07;;
23449;SDS011;11897;45.438;12.128;2024-01-16T05:06:11;67.83;;;38.40;;
23449;SDS011;11897;45.438;12.128;2024-01-16T05:08:41;72.47;;;36.93;;
23449;SDS011;11897;45.438;12.128;2024-01-16T05:11:07;59.27;;;34.47;;
23449;SDS011;11897;45.438;12.128;2024-01-16T05:13:38;63.57;;;35.33;;
23449;SDS011;11897;45.438;12.128;2024-01-16T05:16:08;61.63;;;34.97;;
23449;SDS011;11897;45.438;12.128;2024-01-16T05:18:35;60.07;;;34.43;;
23449;SDS011;11897;45.438;12.128;2024-01-16T05:21:01;59.10;;;32.57;;
23449;SDS011;11897;45.438;12.128;2024-01-16T05:23:28;58.37;;;32.20;;
23449;SDS011;11897;45.438;12.128;2024-01-16T05:25:55;60.13;;;33.07;;
23449;SDS011;11897;45.438;12.128;2024-01-16T05:28:22;55.73;;;30.13;;
23449;SDS011;11897;45.438;12.128;2024-01-16T05:30:50;56.83;;;31.87;;
23449;SDS011;11897;45.438;12.128;2024-01-16T05:33:16;49.70;;;28.30;;
23449;SDS011;11897;45.438;12.128;2024-01-16T05:35:46;49.07;;;28.90;;
23449;SDS011;11897;45.438;12.128;2024-01-16T05:38:15;47.93;;;26.60;;
23449;SDS011;11897;45.438;12.128;2024-01-16T05:40:42;46.77;;;27.17;;
23449;SDS011;11897;45.438;12.128;2024-01-16T05:43:08;49.27;;;25.83;;
23449;SDS011;11897;45.438;12.128;2024-01-16T05:45:35;49.53;;;26.93;;
23449;SDS011;11897;45.438;12.128;2024-01-16T05:48:03;43.70;;;23.40;;
23449;SDS011;11897;45.438;12.128;2024-01-16T05:50:32;44.40;;;24.03;;
23449;SDS011;11897;45.438;12.128;2024-01-16T05:53:00;47.23;;;25.40;;
23449;SDS011;11897;45.438;12.128;2024-01-16T05:55:27;40.77;;;23.00;;
23449;SDS011;11897;45.438;12.128;2024-01-16T05:57:57;35.33;;;21.37;;
23449;SDS011;11897;45.438;12.128;2024-01-16T06:00:25;40.87;;;22.53;;
23449;SDS011;11897;45.438;12.128;2024-01-16T06:02:52;34.77;;;21.10;;
23449;SDS011;11897;45.438;12.128;2024-01-16T06:05:21;35.77;;;19.97;;
23449;SDS011;11897;45.438;12.128;2024-01-16T06:07:48;40.07;;;21.10;;
23449;SDS011;11897;45.438;12.128;2024-01-16T06:10:15;36.60;;;21.23;;
23449;SDS011;11897;45.438;12.128;2024-01-16T06:12:42;35.07;;;20.73;;
23449;SDS011;11897;45.438;12.128;2024-01-16T06:15:08;34.73;;;19.27;;
23449;SDS011;11897;45.438;12.128;2024-01-16T06:17:36;31.13;;;17.53;;
23449;SDS011;11897;45.438;12.128;2024-01-16T06:20:05;30.37;;;17.47;;
23449;SDS011;11897;45.438;12.128;2024-01-16T06:22:35;29.40;;;18.17;;
23449;SDS011;11897;45.438;12.128;2024-01-16T06:25:02;29.50;;;16.13;;
23449;SDS011;11897;45.438;12.128;2024-01-16T06:27:29;26.97;;;16.00;;
23449;SDS011;11897;45.438;12.128;2024-01-16T06:29:56;30.33;;;18.67;;
23449;SDS011;11897;45.438;12.128;2024-01-16T06:32:23;34.83;;;15.80;;
23449;SDS011;11897;45.438;12.128;2024-01-16T06:34:49;27.80;;;16.33;;
23449;SDS011;11897;45.438;12.128;2024-01-16T06:37:16;28.97;;;15.87;;
23449;SDS011;11897;45.438;12.128;2024-01-16T06:39:44;27.13;;;15.97;;
23449;SDS011;11897;45.438;12.128;2024-01-16T06:42:14;26.07;;;14.90;;
23449;SDS011;11897;45.438;12.128;2024-01-16T06:44:40;22.07;;;13.17;;
23449;SDS011;11897;45.438;12.128;2024-01-16T06:47:07;21.90;;;12.57;;
23449;SDS011;11897;45.438;12.128;2024-01-16T06:49:34;29.33;;;12.80;;
23449;SDS011;11897;45.438;12.128;2024-01-16T06:52:00;22.70;;;13.57;;
23449;SDS011;11897;45.438;12.128;2024-01-16T06:54:27;20.10;;;12.13;;
23449;SDS011;11897;45.438;12.128;2024-01-16T06:56:55;22.57;;;11.47;;
23449;SDS011;11897;45.438;12.128;2024-01-16T06:59:22;21.33;;;11.63;;
23449;SDS011;11897;45.438;12.128;2024-01-16T07:01:48;26.17;;;11.43;;
23449;SDS011;11897;45.438;12.128;2024-01-16T07:04:15;19.03;;;10.33;;
23449;SDS011;11897;45.438;12.128;2024-01-16T07:06:42;17.27;;;10.70;;
23449;SDS011;11897;45.438;12.128;2024-01-16T07:09:08;18.03;;;10.30;;
23449;SDS011;11897;45.438;12.128;2024-01-16T07:11:36;16.03;;;9.47;;
23449;SDS011;11897;45.438;12.128;2024-01-16T07:14:06;14.83;;;8.83;;
23449;SDS011;11897;45.438;12.128;2024-01-16T07:16:33;14.03;;;8.20;;
23449;SDS011;11897;45.438;12.128;2024-01-16T07:19:00;17.53;;;9.23;;
23449;SDS011;11897;45.438;12.128;2024-01-16T07:21:27;16.10;;;8.83;;
23449;SDS011;11897;45.438;12.128;2024-01-16T07:23:54;14.63;;;8.40;;
23449;SDS011;11897;45.438;12.128;2024-01-16T07:26:22;10.50;;;7.07;;
23449;SDS011;11897;45.438;12.128;2024-01-16T07:28:48;13.00;;;7.80;;
23449;SDS011;11897;45.438;12.128;2024-01-16T07:31:17;13.03;;;7.63;;
23449;SDS011;11897;45.438;12.128;2024-01-16T07:33:43;9.03;;;6.73;;
23449;SDS011;11897;45.438;12.128;2024-01-16T07:36:11;11.13;;;6.63;;
23449;SDS011;11897;45.438;12.128;2024-01-16T07:38:41;10.93;;;6.50;;
23449;SDS011;11897;45.438;12.128;2024-01-16T07:41:10;10.17;;;6.23;;
23449;SDS011;11897;45.438;12.128;2024-01-16T07:43:37;12.10;;;7.13;;
23449;SDS011;11897;45.438;12.128;2024-01-16T07:46:05;9.10;;;5.90;;
23449;SDS011;11897;45.438;12.128;2024-01-16T07:48:34;10.90;;;6.23;;
23449;SDS011;11897;45.438;12.128;2024-01-16T07:51:01;8.63;;;5.80;;
23449;SDS011;11897;45.438;12.128;2024-01-16T07:53:28;11.97;;;6.00;;
23449;SDS011;11897;45.438;12.128;2024-01-16T07:55:54;9.23;;;5.70;;
23449;SDS011;11897;45.438;12.128;2024-01-16T07:58:21;9.83;;;6.20;;
23449;SDS011;11897;45.438;12.128;2024-01-16T08:00:48;8.47;;;5.87;;
23449;SDS011;11897;45.438;12.128;2024-01-16T08:03:15;7.77;;;5.30;;
23449;SDS011;11897;45.438;12.128;2024-01-16T08:05:45;9.20;;;5.30;;
23449;SDS011;11897;45.438;12.128;2024-01-16T08:08:12;9.13;;;5.13;;
23449;SDS011;11897;45.438;12.128;2024-01-16T08:10:40;7.03;;;5.10;;
23449;SDS011;11897;45.438;12.128;2024-01-16T08:13:08;8.10;;;5.07;;
23449;SDS011;11897;45.438;12.128;2024-01-16T08:15:36;9.50;;;5.30;;
23449;SDS011;11897;45.438;12.128;2024-01-16T08:18:03;6.90;;;5.27;;
23449;SDS011;11897;45.438;12.128;2024-01-16T08:20:31;9.63;;;5.07;;
23449;SDS011;11897;45.438;12.128;2024-01-16T08:23:01;6.93;;;4.37;;
23449;SDS011;11897;45.438;12.128;2024-01-16T08:25:28;7.57;;;4.93;;
23449;SDS011;11897;45.438;12.128;2024-01-16T08:27:55;6.40;;;4.60;;
23449;SDS011;11897;45.438;12.128;2024-01-16T08:30:22;6.53;;;4.63;;
23449;SDS011;11897;45.438;12.128;2024-01-16T08:32:48;8.57;;;5.00;;
23449;SDS011;11897;45.438;12.128;2024-01-16T08:35:15;7.50;;;4.83;;
23449;SDS011;11897;45.438;12.128;2024-01-16T08:37:42;7.33;;;4.50;;
23449;SDS011;11897;45.438;12.128;2024-01-16T08:40:10;7.23;;;5.03;;
23449;SDS011;11897;45.438;12.128;2024-01-16T08:42:38;6.23;;;4.20;;
23449;SDS011;11897;45.438;12.128;2024-01-16T08:45:06;7.17;;;4.77;;
23449;SDS011;11897;45.438;12.128;2024-01-16T08:47:32;7.60;;;4.63;;
23449;SDS011;11897;45.438;12.128;2024-01-16T08:49:59;6.60;;;4.63;;
23449;SDS011;11897;45.438;12.128;2024-01-16T08:52:27;7.30;;;4.47;;
23449;SDS011;11897;45.438;12.128;2024-01-16T08:54:55;7.50;;;4.53;;
23449;SDS011;11897;45.438;12.128;2024-01-16T08:57:24;7.23;;;4.33;;
23449;SDS011;11897;45.438;12.128;2024-01-16T08:59:53;10.33;;;4.93;;
23449;SDS011;11897;45.438;12.128;2024-01-16T09:02:19;6.10;;;4.67;;
23449;SDS011;11897;45.438;12.128;2024-01-16T09:04:46;11.30;;;4.63;;
23449;SDS011;11897;45.438;12.128;2024-01-16T09:07:15;6.47;;;4.20;;
23449;SDS011;11897;45.438;12.128;2024-01-16T09:09:43;6.03;;;4.47;;
23449;SDS011;11897;45.438;12.128;2024-01-16T09:12:10;8.83;;;5.30;;
23449;SDS011;11897;45.438;12.128;2024-01-16T09:14:39;6.60;;;4.30;;
23449;SDS011;11897;45.438;12.128;2024-01-16T09:17:07;7.67;;;4.60;;
23449;SDS011;11897;45.438;12.128;2024-01-16T09:19:35;8.27;;;4.87;;
23449;SDS011;11897;45.438;12.128;2024-01-16T09:22:01;7.50;;;5.37;;
23449;SDS011;11897;45.438;12.128;2024-01-16T09:24:29;6.87;;;4.50;;
23449;SDS011;11897;45.438;12.128;2024-01-16T09:26:55;7.93;;;4.90;;
23449;SDS011;11897;45.438;12.128;2024-01-16T09:29:23;8.00;;;4.40;;
23449;SDS011;11897;45.438;12.128;2024-01-16T09:31:51;8.70;;;4.90;;
23449;SDS011;11897;45.438;12.128;2024-01-16T09:34:18;5.97;;;4.50;;
23449;SDS011;11897;45.438;12.128;2024-01-16T09:36:44;7.73;;;4.77;;
23449;SDS011;11897;45.438;12.128;2024-01-16T09:39:11;7.00;;;4.70;;
23449;SDS011;11897;45.438;12.128;2024-01-16T09:41:39;8.50;;;4.60;;
23449;SDS011;11897;45.438;12.128;2024-01-16T09:44:06;6.87;;;4.57;;
23449;SDS011;11897;45.438;12.128;2024-01-16T09:46:34;6.73;;;4.53;;
23449;SDS011;11897;45.438;12.128;2024-01-16T09:49:02;6.10;;;4.20;;
23449;SDS011;11897;45.438;12.128;2024-01-16T09:51:29;7.47;;;4.30;;
23449;SDS011;11897;45.438;12.128;2024-01-16T09:53:56;8.20;;;4.07;;
23449;SDS011;11897;45.438;12.128;2024-01-16T09:56:23;7.90;;;4.17;;
23449;SDS011;11897;45.438;12.128;2024-01-16T09:58:52;5.70;;;4.10;;
23449;SDS011;11897;45.438;12.128;2024-01-16T10:01:21;5.63;;;3.60;;
23449;SDS011;11897;45.438;12.128;2024-01-16T10:03:48;6.30;;;3.73;;
23449;SDS011;11897;45.438;12.128;2024-01-16T10:06:16;6.20;;;3.93;;
23449;SDS011;11897;45.438;12.128;2024-01-16T10:08:44;7.40;;;4.13;;
23449;SDS011;11897;45.438;12.128;2024-01-16T10:11:11;6.07;;;4.10;;
23449;SDS011;11897;45.438;12.128;2024-01-16T10:13:38;7.40;;;4.23;;
23449;SDS011;11897;45.438;12.128;2024-01-16T10:16:06;5.73;;;3.87;;
23449;SDS011;11897;45.438;12.128;2024-01-16T10:18:33;6.13;;;3.50;;
23449;SDS011;11897;45.438;12.128;2024-01-16T10:21:00;7.03;;;4.03;;
23449;SDS011;11897;45.438;12.128;2024-01-16T10:23:28;6.40;;;3.10;;
23449;SDS011;11897;45.438;12.128;2024-01-16T10:26:05;4.73;;;3.40;;
23449;SDS011;11897;45.438;12.128;2024-01-16T10:28:32;7.30;;;3.53;;
23449;SDS011;11897;45.438;12.128;2024-01-16T10:31:01;5.17;;;3.50;;
23449;SDS011;11897;45.438;12.128;2024-01-16T10:33:28;6.40;;;4.20;;
23449;SDS011;11897;45.438;12.128;2024-01-16T10:36:00;6.90;;;3.90;;
23449;SDS011;11897;45.438;12.128;2024-01-16T10:38:34;6.50;;;3.70;;
23449;SDS011;11897;45.438;12.128;2024-01-16T10:41:08;4.47;;;3.13;;
23449;SDS011;11897;45.438;12.128;2024-01-16T10:43:35;4.87;;;3.40;;
23449;SDS011;11897;45.438;12.128;2024-01-16T10:48:58;7.17;;;3.97;;
23449;SDS011;11897;45.438;12.128;2024-01-16T10:51:26;4.53;;;3.43;;
23449;SDS011;11897;45.438;12.128;2024-01-16T10:53:55;8.20;;;3.17;;
23449;SDS011;11897;45.438;12.128;2024-01-16T10:56:25;4.40;;;3.10;;
23449;SDS011;11897;45.438;12.128;2024-01-16T10:58:55;5.70;;;3.60;;
23449;SDS011;11897;45.438;12.128;2024-01-16T11:01:24;4.43;;;3.37;;
23449;SDS011;11897;45.438;12.128;2024-01-16T11:03:52;4.13;;;3.20;;
23449;SDS011;11897;45.438;12.128;2024-01-16T11:06:22;5.80;;;3.83;;
23449;SDS011;11897;45.438;12.128;2024-01-16T11:08:49;6.03;;;3.27;;
23449;SDS011;11897;45.438;12.128;2024-01-16T11:11:20;5.27;;;3.20;;
23449;SDS011;11897;45.438;12.128;2024-01-16T11:13:48;6.27;;;3.70;;
23449;SDS011;11897;45.438;12.128;2024-01-16T11:16:15;4.07;;;3.13;;
23449;SDS011;11897;45.438;12.128;2024-01-16T11:18:44;4.30;;;2.73;;
23449;SDS011;11897;45.438;12.128;2024-01-16T11:21:12;3.90;;;2.50;;
23449;SDS011;11897;45.438;12.128;2024-01-16T11:23:39;5.70;;;2.67;;
23449;SDS011;11897;45.438;12.128;2024-01-16T11:26:26;4.90;;;2.70;;
23449;SDS011;11897;45.438;12.128;2024-01-16T11:28:54;5.27;;;3.07;;
23449;SDS011;11897;45.438;12.128;2024-01-16T11:31:28;5.60;;;3.17;;
23449;SDS011;11897;45.438;12.128;2024-01-16T11:33:55;5.67;;;3.07;;
23449;SDS011;11897;45.438;12.128;2024-01-16T11:39:05;5.33;;;3.10;;
23449;SDS011;11897;45.438;12.128;2024-01-16T11:41:50;4.30;;;2.87;;
23449;SDS011;11897;45.438;12.128;2024-01-16T11:47:04;4.83;;;3.20;;
23449;SDS011;11897;45.438;12.128;2024-01-16T11:49:31;6.37;;;3.93;;
23449;SDS011;11897;45.438;12.128;2024-01-16T11:51:58;4.30;;;2.97;;
23449;SDS011;11897;45.438;12.128;2024-01-16T11:54:25;5.47;;;3.43;;
23449;SDS011;11897;45.438;12.128;2024-01-16T11:57:05;5.17;;;3.20;;
23449;SDS011;11897;45.438;12.128;2024-01-16T12:02:46;4.73;;;2.50;;
23449;SDS011;11897;45.438;12.128;2024-01-16T12:05:16;3.67;;;2.37;;
23449;SDS011;11897;45.438;12.128;2024-01-16T12:07:43;3.17;;;2.07;;
23449;SDS011;11897;45.438;12.128;2024-01-16T12:10:10;2.33;;;1.80;;
23449;SDS011;11897;45.438;12.128;2024-01-16T12:12:38;3.67;;;2.30;;
23449;SDS011;11897;45.438;12.128;2024-01-16T12:15:06;2.60;;;1.80;;
23449;SDS011;11897;45.438;12.128;2024-01-16T12:17:38;3.50;;;2.33;;
23449;SDS011;11897;45.438;12.128;2024-01-16T12:20:15;3.40;;;2.00;;
23449;SDS011;11897;45.438;12.128;2024-01-16T12:22:52;6.00;;;2.30;;
23449;SDS011;11897;45.438;12.128;2024-01-16T12:25:20;4.53;;;2.30;;
23449;SDS011;11897;45.438;12.128;2024-01-16T12:27:48;6.57;;;2.07;;
23449;SDS011;11897;45.438;12.128;2024-01-16T12:30:20;2.03;;;1.80;;
23449;SDS011;11897;45.438;12.128;2024-01-16T12:32:47;3.13;;;2.20;;
23449;SDS011;11897;45.438;12.128;2024-01-16T12:35:19;3.47;;;2.50;;
23449;SDS011;11897;45.438;12.128;2024-01-16T12:37:56;5.17;;;2.60;;
23449;SDS011;11897;45.438;12.128;2024-01-16T12:40:24;2.80;;;2.10;;
23449;SDS011;11897;45.438;12.128;2024-01-16T12:42:53;3.23;;;2.20;;
23449;SDS011;11897;45.438;12.128;2024-01-16T12:45:21;3.33;;;2.30;;
23449;SDS011;11897;45.438;12.128;2024-01-16T12:47:51;4.47;;;2.40;;
23449;SDS011;11897;45.438;12.128;2024-01-16T12:50:21;2.63;;;1.93;;
23449;SDS011;11897;45.438;12.128;2024-01-16T12:52:49;3.60;;;2.07;;
23449;SDS011;11897;45.438;12.128;2024-01-16T12:55:16;2.70;;;2.10;;
23449;SDS011;11897;45.438;12.128;2024-01-16T12:57:47;2.23;;;1.70;;
23449;SDS011;11897;45.438;12.128;2024-01-16T13:00:23;4.13;;;1.77;;
23449;SDS011;11897;45.438;12.128;2024-01-16T13:02:50;2.70;;;1.80;;
23449;SDS011;11897;45.438;12.128;2024-01-16T13:05:25;3.10;;;1.97;;
23449;SDS011;11897;45.438;12.128;2024-01-16T13:08:01;3.67;;;2.00;;
23449;SDS011;11897;45.438;12.128;2024-01-16T13:10:30;3.50;;;1.93;;
23449;SDS011;11897;45.438;12.128;2024-01-16T13:13:13;3.07;;;2.17;;
23449;SDS011;11897;45.438;12.128;2024-01-16T13:15:41;4.30;;;2.60;;
23449;SDS011;11897;45.438;12.128;2024-01-16T13:18:17;3.53;;;2.57;;
23449;SDS011;11897;45.438;12.128;2024-01-16T13:20:44;4.20;;;2.80;;
23449;SDS011;11897;45.438;12.128;2024-01-16T13:23:12;3.60;;;2.90;;
23449;SDS011;11897;45.438;12.128;2024-01-16T13:25:39;5.07;;;2.77;;
23449;SDS011;11897;45.438;12.128;2024-01-16T13:28:05;2.87;;;2.23;;
23449;SDS011;11897;45.438;12.128;2024-01-16T13:30:33;3.63;;;2.20;;
23449;SDS011;11897;45.438;12.128;2024-01-16T13:33:03;2.67;;;2.10;;
23449;SDS011;11897;45.438;12.128;2024-01-16T13:35:39;2.73;;;2.20;;
23449;SDS011;11897;45.438;12.128;2024-01-16T13:38:08;2.70;;;2.00;;
23449;SDS011;11897;45.438;12.128;2024-01-16T13:40:35;3.40;;;2.23;;
23449;SDS011;11897;45.438;12.128;2024-01-16T13:43:02;3.60;;;2.10;;
23449;SDS011;11897;45.438;12.128;2024-01-16T13:45:29;2.90;;;2.03;;
23449;SDS011;11897;45.438;12.128;2024-01-16T13:47:56;2.93;;;2.10;;
23449;SDS011;11897;45.438;12.128;2024-01-16T13:50:28;2.37;;;2.17;;
23449;SDS011;11897;45.438;12.128;2024-01-16T13:52:57;3.83;;;2.60;;
23449;SDS011;11897;45.438;12.128;2024-01-16T13:55:29;5.43;;;3.23;;
23449;SDS011;11897;45.438;12.128;2024-01-16T13:57:57;8.47;;;3.90;;
23449;SDS011;11897;45.438;12.128;2024-01-16T14:00:26;9.83;;;3.37;;
23449;SDS011;11897;45.438;12.128;2024-01-16T14:02:54;8.07;;;3.27;;
23449;SDS011;11897;45.438;12.128;2024-01-16T14:05:23;7.50;;;2.57;;
23449;SDS011;11897;45.438;12.128;2024-01-16T14:07:53;5.33;;;3.00;;
23449;SDS011;11897;45.438;12.128;2024-01-16T14:10:21;5.97;;;2.70;;
23449;SDS011;11897;45.438;12.128;2024-01-16T14:12:50;3.23;;;2.63;;
23449;SDS011;11897;45.438;12.128;2024-01-16T14:15:18;5.17;;;2.63;;
23449;SDS011;11897;45.438;12.128;2024-01-16T14:17:46;4.30;;;2.80;;
23449;SDS011;11897;45.438;12.128;2024-01-16T14:20:13;4.23;;;2.57;;
23449;SDS011;11897;45.438;12.128;2024-01-16T14:22:40;5.03;;;2.90;;
23449;SDS011;11897;45.438;12.128;2024-01-16T14:25:09;7.93;;;3.10;;
23449;SDS011;11897;45.438;12.128;2024-01-16T14:27:38;7.20;;;3.40;;
23449;SDS011;11897;45.438;12.128;2024-01-16T14:30:09;7.53;;;3.00;;
23449;SDS011;11897;45.438;12.128;2024-01-16T14:32:37;7.30;;;3.37;;
23449;SDS011;11897;45.438;12.128;2024-01-16T14:35:04;3.43;;;2.90;;